createdAt,value
2018-03-02T00:01:08.063Z,55.20
2018-03-02T00:03:49.092Z,54.60
2018-03-02T00:06:24.385Z,54.80
2018-03-02T00:09:05.381Z,54.80
2018-03-02T00:11:39.684Z,54.80
2018-03-02T00:14:18.446Z,54.90
2018-03-02T00:16:52.089Z,54.90
2018-03-02T00:19:25.805Z,54.70
2018-03-02T00:21:59.951Z,54.80
2018-03-02T00:24:34.159Z,54.80
2018-03-02T00:27:13.636Z,54.90
2018-03-02T00:29:53.214Z,55.60
2018-03-02T00:32:32.268Z,55.10
2018-03-02T00:35:11.760Z,55.40
2018-03-02T00:37:47.242Z,55.40
2018-03-02T00:40:26.170Z,55.70
2018-03-02T00:43:07.230Z,55.50
2018-03-02T00:45:45.478Z,55.60
2018-03-02T00:48:26.721Z,55.60
2018-03-02T00:51:05.744Z,55.80
2018-03-02T00:53:43.466Z,56.10
2018-03-02T00:56:23.298Z,56.50
2018-03-02T00:59:02.961Z,56.50
2018-03-02T01:01:42.031Z,57.20
2018-03-02T01:04:20.549Z,56.60
2018-03-02T01:07:01.037Z,56.70
2018-03-02T01:09:38.658Z,56.70
2018-03-02T01:12:17.391Z,57.30
2018-03-02T01:14:56.371Z,57.10
2018-03-02T01:17:36.408Z,57.10
2018-03-02T01:20:15.408Z,57.20
2018-03-02T01:22:56.073Z,57.40
2018-03-02T01:25:35.726Z,57.30
2018-03-02T01:28:15.006Z,57.20
2018-03-02T01:30:55.886Z,57.40
2018-03-02T01:33:34.740Z,57.50
2018-03-02T01:36:14.884Z,57.80
2018-03-02T01:38:55.284Z,57.80
2018-03-02T01:41:34.287Z,57.90
2018-03-02T01:44:12.835Z,57.80
2018-03-02T01:46:51.152Z,57.50
2018-03-02T01:49:30.340Z,57.60
2018-03-02T01:52:07.972Z,57.70
2018-03-02T01:54:47.175Z,58.10
2018-03-02T01:57:22.948Z,57.90
2018-03-02T02:00:03.732Z,58.00
2018-03-02T02:02:44.218Z,58.00
2018-03-02T02:05:24.619Z,58.30
2018-03-02T02:08:02.896Z,58.10
2018-03-02T02:10:40.474Z,58.40
2018-03-02T02:13:18.127Z,58.10
2018-03-02T02:15:56.740Z,58.10
2018-03-02T02:18:37.399Z,58.00
2018-03-02T02:21:18.833Z,58.00
2018-03-02T02:23:58.904Z,58.00
2018-03-02T02:26:37.829Z,58.20
2018-03-02T02:29:17.147Z,58.00
2018-03-02T02:31:54.549Z,58.40
2018-03-02T02:34:34.284Z,57.90
2018-03-02T02:37:12.103Z,58.70
2018-03-02T02:39:51.240Z,58.40
2018-03-02T02:42:31.324Z,58.30
2018-03-02T02:45:10.395Z,58.60
2018-03-02T02:47:48.665Z,58.60
2018-03-02T02:50:22.579Z,58.70
2018-03-02T02:53:01.859Z,58.50
2018-03-02T02:55:41.343Z,58.40
2018-03-02T02:58:20.647Z,58.40
2018-03-02T03:01:00.612Z,58.40
2018-03-02T03:03:41.003Z,58.60
2018-03-02T03:06:20.051Z,58.60
2018-03-02T03:09:01.417Z,59.00
2018-03-02T03:11:34.953Z,59.00
2018-03-02T03:14:14.140Z,59.10
2018-03-02T03:16:53.827Z,59.40
2018-03-02T03:19:31.456Z,59.50
2018-03-02T03:22:12.875Z,59.50
2018-03-02T03:24:51.747Z,59.50
2018-03-02T03:27:30.510Z,59.70
2018-03-02T03:30:11.389Z,59.70
2018-03-02T03:32:44.472Z,59.70
2018-03-02T03:35:22.052Z,60.10
2018-03-02T03:37:59.595Z,60.00
2018-03-02T03:40:39.054Z,60.00
2018-03-02T03:43:18.016Z,59.90
2018-03-02T03:45:57.480Z,60.20
2018-03-02T03:48:34.939Z,60.20
2018-03-02T03:51:16.596Z,60.40
2018-03-02T03:53:55.758Z,60.30
2018-03-02T03:56:34.071Z,60.60
2018-03-02T03:59:14.326Z,60.50
2018-03-02T04:01:54.093Z,60.30
2018-03-02T04:04:31.463Z,60.40
2018-03-02T04:07:09.046Z,60.30
2018-03-02T04:09:49.314Z,60.50
2018-03-02T04:12:31.747Z,60.50
2018-03-02T04:15:09.873Z,60.40
2018-03-02T04:17:48.061Z,60.50
2018-03-02T04:20:30.180Z,60.90
2018-03-02T04:23:07.947Z,60.80
2018-03-02T04:25:45.532Z,60.90
2018-03-02T04:28:22.655Z,60.90
2018-03-02T04:31:00.564Z,61.30
2018-03-02T04:33:40.224Z,61.00
2018-03-02T04:36:19.318Z,61.80
2018-03-02T04:38:56.617Z,60.80
2018-03-02T04:41:34.903Z,60.70
2018-03-02T04:44:13.471Z,60.80
2018-03-02T04:46:51.899Z,60.70
2018-03-02T04:49:29.348Z,60.50
2018-03-02T04:52:10.032Z,60.50
2018-03-02T04:54:48.992Z,60.90
2018-03-02T04:57:28.331Z,60.90
2018-03-02T05:00:06.179Z,60.80
2018-03-02T05:02:43.888Z,60.80
2018-03-02T05:05:22.602Z,60.90
2018-03-02T05:08:01.019Z,61.10
2018-03-02T05:10:39.939Z,61.00
2018-03-02T05:13:17.915Z,61.10
2018-03-02T05:15:53.219Z,61.40
2018-03-02T05:18:36.319Z,61.50
2018-03-02T05:21:17.679Z,61.40
2018-03-02T05:23:59.600Z,61.40
2018-03-02T05:26:38.831Z,62.20
2018-03-02T05:29:18.299Z,61.40
2018-03-02T05:31:55.012Z,61.60
2018-03-02T05:34:38.382Z,61.60
2018-03-02T05:37:19.237Z,62.50
2018-03-02T05:39:54.165Z,61.80
2018-03-02T05:42:31.640Z,62.00
2018-03-02T05:45:11.158Z,67.20
2018-03-02T05:47:47.463Z,62.00
2018-03-02T05:50:21.635Z,61.70
2018-03-02T05:52:58.267Z,62.30
2018-03-02T05:55:36.890Z,63.10
2018-03-02T05:58:14.509Z,62.90
2018-03-02T06:00:55.008Z,62.90
2018-03-02T06:03:34.018Z,62.90
2018-03-02T06:06:16.397Z,62.80
2018-03-02T06:08:56.117Z,63.40
2018-03-02T06:11:34.555Z,63.20
2018-03-02T06:14:08.963Z,62.80
2018-03-02T06:16:48.129Z,62.20
2018-03-02T06:19:26.951Z,62.10
2018-03-02T06:22:02.947Z,61.90
2018-03-02T06:24:42.139Z,62.10
2018-03-02T06:27:22.610Z,62.10
2018-03-02T06:30:02.435Z,61.90
2018-03-02T06:32:41.465Z,61.90
2018-03-02T06:35:21.062Z,61.80
2018-03-02T06:37:59.116Z,61.90
2018-03-02T06:40:39.915Z,61.70
2018-03-02T06:43:17.764Z,61.50
2018-03-02T06:45:57.140Z,61.70
2018-03-02T06:48:35.427Z,61.70
2018-03-02T06:51:10.367Z,61.70
2018-03-02T06:53:48.290Z,61.50
2018-03-02T06:56:26.911Z,61.30
2018-03-02T06:59:00.224Z,61.00
2018-03-02T07:01:38.643Z,61.40
2018-03-02T07:04:12.197Z,61.40
2018-03-02T07:06:51.446Z,61.10
2018-03-02T07:09:31.470Z,61.20
2018-03-02T07:12:10.016Z,61.30
2018-03-02T07:14:50.089Z,61.30
2018-03-02T07:17:23.822Z,61.20
2018-03-02T07:20:03.256Z,61.40
2018-03-02T07:22:42.928Z,61.40
2018-03-02T07:25:21.339Z,61.40
2018-03-02T07:28:00.546Z,61.50
2018-03-02T07:30:40.745Z,60.90
2018-03-02T07:33:20.514Z,60.90
2018-03-02T07:36:00.848Z,60.80
2018-03-02T07:38:34.995Z,61.10
2018-03-02T07:41:17.678Z,61.60
2018-03-02T07:43:54.894Z,61.70
2018-03-02T07:46:31.871Z,61.60
2018-03-02T07:49:12.006Z,60.80
2018-03-02T07:51:52.851Z,60.80
2018-03-02T07:54:31.111Z,60.80
2018-03-02T07:57:12.558Z,61.10
2018-03-02T07:59:53.936Z,61.10
2018-03-02T08:02:27.996Z,61.00
2018-03-02T08:05:07.178Z,61.00
2018-03-02T08:07:47.217Z,60.70
2018-03-02T08:10:27.248Z,60.30
2018-03-02T08:13:02.856Z,60.00
2018-03-02T08:15:41.540Z,60.00
2018-03-02T08:18:22.372Z,60.00
2018-03-02T08:21:03.008Z,59.90
2018-03-02T08:23:37.754Z,59.80
2018-03-02T08:26:16.819Z,60.00
2018-03-02T08:29:02.536Z,59.40
2018-03-02T08:31:37.219Z,59.40
2018-03-02T08:34:22.880Z,59.30
2018-03-02T08:37:04.886Z,59.20
2018-03-02T08:39:46.382Z,58.90
2018-03-02T08:42:24.916Z,58.40
2018-03-02T08:44:59.234Z,59.00
2018-03-02T08:47:38.946Z,59.30
2018-03-02T08:50:19.458Z,59.50
2018-03-02T08:52:59.251Z,59.40
2018-03-02T08:55:37.794Z,58.50
2018-03-02T08:58:19.506Z,58.60
2018-03-02T09:00:58.128Z,59.00
2018-03-02T09:03:32.242Z,59.00
2018-03-02T09:06:12.739Z,59.10
2018-03-02T09:08:50.308Z,59.00
2018-03-02T09:11:28.606Z,58.40
2018-03-02T09:14:05.301Z,58.10
2018-03-02T09:16:42.343Z,58.00
2018-03-02T09:19:23.864Z,58.00
2018-03-02T09:22:01.405Z,57.70
2018-03-02T09:24:38.756Z,57.30
2018-03-02T09:27:20.474Z,57.30
2018-03-02T09:30:02.623Z,57.30
2018-03-02T09:32:38.578Z,56.90
2018-03-02T09:35:15.902Z,56.10
2018-03-02T09:37:54.498Z,56.10
2018-03-02T09:40:33.563Z,55.70
2018-03-02T09:43:13.150Z,56.20
2018-03-02T09:45:48.527Z,56.20
2018-03-02T09:48:25.163Z,56.50
2018-03-02T09:51:01.950Z,55.70
2018-03-02T09:53:32.425Z,55.60
2018-03-02T09:56:08.328Z,55.30
2018-03-02T09:58:46.280Z,55.50
2018-03-02T10:01:22.835Z,55.80
2018-03-02T10:04:06.372Z,56.10
2018-03-02T10:06:43.461Z,55.70
2018-03-02T10:09:22.406Z,55.40
2018-03-02T10:12:01.262Z,55.10
2018-03-02T10:14:38.187Z,55.10
2018-03-02T10:17:13.933Z,55.20
2018-03-02T10:19:52.128Z,54.60
2018-03-02T10:22:31.757Z,54.80
2018-03-02T10:25:09.848Z,54.80
2018-03-02T10:27:47.527Z,54.20
2018-03-02T10:30:24.844Z,54.20
2018-03-02T10:33:01.812Z,53.90
2018-03-02T10:35:39.346Z,54.20
2018-03-02T10:38:16.916Z,53.40
2018-03-02T10:40:54.888Z,53.80
2018-03-02T10:43:32.155Z,54.10
2018-03-02T10:46:10.210Z,53.50
2018-03-02T10:48:47.384Z,53.50
2018-03-02T10:51:29.882Z,53.40
2018-03-02T10:54:06.150Z,53.60
2018-03-02T10:56:42.290Z,52.90
2018-03-02T10:59:18.631Z,52.50
2018-03-02T11:01:55.801Z,52.40
2018-03-02T11:04:31.851Z,52.00
2018-03-02T11:07:09.251Z,52.40
2018-03-02T11:09:45.674Z,51.90
2018-03-02T11:12:22.882Z,51.60
2018-03-02T11:14:59.930Z,52.00
2018-03-02T11:17:36.108Z,51.80
2018-03-02T11:20:12.483Z,52.30
2018-03-02T11:22:49.287Z,51.10
2018-03-02T11:25:32.743Z,51.70
2018-03-02T11:28:09.462Z,51.60
2018-03-02T11:30:46.613Z,51.70
2018-03-02T11:33:25.271Z,50.90
2018-03-02T11:36:03.245Z,50.90
2018-03-02T11:38:39.569Z,50.80
2018-03-02T11:41:16.983Z,51.10
2018-03-02T11:43:54.184Z,50.40
2018-03-02T11:46:32.435Z,50.30
2018-03-02T11:49:09.632Z,50.10
2018-03-02T11:51:52.453Z,50.70
2018-03-02T11:54:29.737Z,51.40
2018-03-02T11:57:06.154Z,51.00
2018-03-02T11:59:42.288Z,50.20
2018-03-02T12:02:19.107Z,49.40
2018-03-02T12:04:57.146Z,49.30
2018-03-02T12:07:38.226Z,49.70
2018-03-02T12:10:16.813Z,49.40
2018-03-02T12:12:54.388Z,49.40
2018-03-02T12:15:32.062Z,49.00
2018-03-02T12:18:08.764Z,48.20
2018-03-02T12:20:46.058Z,48.20
2018-03-02T12:23:24.328Z,48.80
2018-03-02T12:26:02.575Z,48.90
2018-03-02T12:28:39.461Z,48.90
2018-03-02T12:31:16.410Z,48.70
2018-03-02T12:33:53.846Z,48.60
2018-03-02T12:36:32.015Z,49.00
2018-03-02T12:39:09.945Z,49.00
2018-03-02T12:41:49.146Z,49.30
2018-03-02T12:44:27.213Z,48.90
2018-03-02T12:47:04.073Z,48.90
2018-03-02T12:49:44.344Z,48.80
2018-03-02T12:52:21.777Z,48.70
2018-03-02T12:54:57.629Z,48.50
2018-03-02T12:57:35.550Z,48.30
2018-03-02T13:00:12.913Z,48.40
2018-03-02T13:02:52.115Z,48.30
2018-03-02T13:05:28.521Z,48.40
2018-03-02T13:08:08.970Z,48.20
2018-03-02T13:10:47.654Z,48.80
2018-03-02T13:13:23.338Z,48.70
2018-03-02T13:16:04.193Z,49.00
2018-03-02T13:18:51.652Z,48.60
2018-03-02T13:21:31.774Z,48.80
2018-03-02T13:24:11.177Z,48.60
2018-03-02T13:26:58.454Z,48.50
2018-03-02T13:29:41.108Z,48.30
2018-03-02T13:32:20.087Z,48.30
2018-03-02T13:35:07.735Z,47.80
2018-03-02T13:37:44.915Z,47.40
2018-03-02T13:40:32.188Z,47.60
2018-03-02T13:43:02.487Z,47.90
2018-03-02T13:45:40.384Z,48.10
2018-03-02T13:48:22.344Z,47.80
2018-03-02T13:51:01.087Z,47.20
2018-03-02T13:53:37.973Z,46.90
2018-03-02T13:56:20.727Z,47.00
2018-03-02T13:58:57.791Z,46.60
2018-03-02T14:01:41.324Z,47.10
2018-03-02T14:04:28.149Z,46.70
2018-03-02T14:07:07.967Z,46.80
2018-03-02T14:09:43.558Z,46.50
2018-03-02T14:12:20.908Z,46.70
2018-03-02T14:14:56.322Z,47.00
2018-03-02T14:17:38.548Z,47.10
2018-03-02T14:20:17.653Z,46.30
2018-03-02T14:22:55.269Z,46.00
2018-03-02T14:25:32.877Z,46.30
2018-03-02T14:28:10.835Z,46.30
2018-03-02T14:30:47.503Z,46.40
2018-03-02T14:33:24.839Z,46.30
2018-03-02T14:36:01.548Z,46.30
2018-03-02T14:38:38.802Z,45.90
2018-03-02T14:41:18.366Z,46.10
2018-03-02T14:43:54.059Z,46.50
2018-03-02T14:46:31.702Z,46.50
2018-03-02T14:49:09.151Z,46.70
2018-03-02T14:51:47.459Z,46.50
2018-03-02T14:54:27.768Z,46.40
2018-03-02T14:57:05.312Z,46.70
2018-03-02T14:59:44.774Z,46.70
2018-03-02T15:02:22.183Z,46.50
2018-03-02T15:04:58.401Z,47.20
2018-03-02T15:07:36.123Z,46.60
2018-03-02T15:10:14.120Z,46.70
2018-03-02T15:12:51.374Z,46.10
2018-03-02T15:15:29.264Z,46.30
2018-03-02T15:18:05.297Z,46.20
2018-03-02T15:20:41.655Z,46.10
2018-03-02T15:23:17.672Z,46.20
2018-03-02T15:25:56.224Z,46.00
2018-03-02T15:28:32.696Z,45.90
2018-03-02T15:31:10.297Z,46.00
2018-03-02T15:33:47.542Z,46.60
2018-03-02T15:36:27.718Z,46.70
2018-03-02T15:39:05.404Z,46.80
2018-03-02T15:41:44.771Z,46.50
2018-03-02T15:44:22.292Z,46.30
2018-03-02T15:46:59.591Z,46.30
2018-03-02T15:49:36.569Z,46.50
2018-03-02T15:52:14.765Z,46.40
2018-03-02T15:54:51.860Z,46.80
2018-03-02T15:57:31.355Z,47.10
2018-03-02T16:00:07.445Z,47.10
2018-03-02T16:02:46.132Z,47.20
2018-03-02T16:05:21.785Z,47.20
2018-03-02T16:07:59.475Z,47.30
2018-03-02T16:10:37.140Z,47.20
2018-03-02T16:13:13.271Z,47.10
2018-03-02T16:15:51.948Z,47.50
2018-03-02T16:18:28.894Z,47.50
2018-03-02T16:21:08.942Z,47.50
2018-03-02T16:23:45.049Z,47.40
2018-03-02T16:26:22.471Z,47.60
2018-03-02T16:29:01.572Z,46.50
2018-03-02T16:31:38.675Z,46.60
2018-03-02T16:34:15.981Z,46.50
2018-03-02T16:36:54.109Z,46.70
2018-03-02T16:39:33.629Z,46.70
2018-03-02T16:42:11.335Z,46.70
2018-03-02T16:44:47.495Z,46.70
2018-03-02T16:47:26.738Z,46.60
2018-03-02T16:50:04.118Z,46.80
2018-03-02T16:52:40.114Z,46.70
2018-03-02T16:55:16.563Z,46.70
2018-03-02T16:57:58.694Z,47.10
2018-03-02T17:00:37.973Z,46.40
2018-03-02T17:03:16.069Z,46.60
2018-03-02T17:05:53.472Z,47.10
2018-03-02T17:08:31.130Z,47.10
2018-03-02T17:11:09.948Z,47.70
2018-03-02T17:13:46.566Z,47.70
2018-03-02T17:16:16.639Z,48.70
2018-03-02T17:18:53.996Z,49.80
2018-03-02T17:21:31.041Z,53.50
2018-03-02T17:24:08.347Z,58.30
2018-03-02T17:26:47.870Z,58.70
2018-03-02T17:29:25.131Z,59.80
2018-03-02T17:32:00.456Z,60.80
2018-03-02T17:34:36.283Z,61.00
2018-03-02T17:37:12.084Z,60.60
2018-03-02T17:39:49.585Z,61.60
2018-03-02T17:42:26.195Z,61.50
2018-03-02T17:45:04.005Z,61.40
2018-03-02T17:47:40.611Z,60.70
2018-03-02T17:50:16.486Z,60.30
2018-03-02T17:52:55.212Z,59.60
2018-03-02T17:55:33.360Z,59.10
2018-03-02T17:58:10.972Z,59.10
2018-03-02T18:00:48.082Z,59.10
2018-03-02T18:03:26.191Z,61.00
2018-03-02T18:06:04.156Z,61.50
2018-03-02T18:08:40.359Z,61.40
2018-03-02T18:11:16.965Z,61.80
2018-03-02T18:13:58.989Z,61.80
2018-03-02T18:16:36.621Z,61.60
2018-03-02T18:19:13.699Z,62.10
2018-03-02T18:21:50.516Z,62.00
2018-03-02T18:24:27.719Z,62.10
2018-03-02T18:27:04.901Z,62.00
2018-03-02T18:29:42.682Z,61.40
2018-03-02T18:32:18.087Z,61.60
2018-03-02T18:34:56.055Z,61.50
2018-03-02T18:37:33.301Z,61.50
2018-03-02T18:40:10.646Z,61.60
2018-03-02T18:42:47.480Z,61.20
2018-03-02T18:45:30.045Z,60.90
2018-03-02T18:48:05.750Z,60.90
2018-03-02T18:50:43.091Z,60.30
2018-03-02T18:53:21.265Z,62.40
2018-03-02T18:55:58.542Z,62.40
2018-03-02T18:58:34.084Z,62.80
2018-03-02T19:01:11.803Z,63.40
2018-03-02T19:03:48.873Z,65.20
2018-03-02T19:06:25.778Z,67.50
2018-03-02T19:09:04.834Z,73.40
2018-03-02T19:11:43.417Z,77.10
2018-03-02T19:14:20.778Z,77.00
2018-03-02T19:16:56.025Z,79.20
2018-03-02T19:19:34.340Z,80.20
2018-03-02T19:22:10.249Z,80.90
2018-03-02T19:24:47.251Z,83.40
2018-03-02T19:27:29.649Z,85.40
2018-03-02T19:30:07.788Z,87.60
2018-03-02T19:32:45.553Z,88.80
2018-03-02T19:35:23.542Z,90.00
2018-03-02T19:38:03.367Z,88.10
2018-03-02T19:40:41.458Z,88.70
2018-03-02T19:43:18.473Z,88.70
2018-03-02T19:45:55.479Z,87.60
2018-03-02T19:48:31.861Z,87.60
2018-03-02T19:51:08.944Z,89.00
2018-03-02T19:53:44.706Z,89.70
2018-03-02T19:56:22.223Z,90.30
2018-03-02T19:59:00.484Z,91.20
2018-03-02T20:01:42.156Z,91.20
2018-03-02T20:04:19.067Z,91.60
2018-03-02T20:07:01.249Z,91.70
2018-03-02T20:09:38.481Z,91.90
2018-03-02T20:12:14.205Z,91.80
2018-03-02T20:14:51.796Z,91.90
2018-03-02T20:17:26.906Z,91.80
2018-03-02T20:20:05.571Z,91.80
2018-03-02T20:22:42.158Z,92.20
2018-03-02T20:25:18.714Z,92.70
2018-03-02T20:27:55.289Z,93.30
2018-03-02T20:30:33.201Z,93.70
2018-03-02T20:33:11.601Z,94.10
2018-03-02T20:35:47.401Z,94.10
2018-03-02T20:38:23.490Z,94.10
2018-03-02T20:41:02.161Z,94.60
2018-03-02T20:43:39.059Z,95.00
2018-03-02T20:46:14.360Z,94.90
2018-03-02T20:48:50.902Z,95.50
2018-03-02T20:51:28.002Z,96.30
2018-03-02T20:53:59.032Z,96.10
2018-03-02T20:56:35.221Z,96.40
2018-03-02T20:59:10.660Z,96.60
2018-03-02T21:01:48.212Z,97.20
2018-03-02T21:04:25.400Z,97.30
2018-03-02T21:07:00.905Z,97.30
2018-03-02T21:09:38.795Z,97.70
2018-03-02T21:12:14.448Z,97.70
2018-03-02T21:14:52.915Z,98.10
2018-03-02T21:17:31.353Z,97.80
2018-03-02T21:20:08.584Z,97.90
2018-03-02T21:22:46.469Z,97.90
2018-03-02T21:25:22.987Z,98.10
2018-03-02T21:28:02.274Z,98.10
2018-03-02T21:30:41.538Z,98.30
2018-03-02T21:33:19.144Z,98.30
2018-03-02T21:35:54.994Z,98.50
2018-03-02T21:38:32.106Z,98.30
2018-03-02T21:41:11.446Z,98.30
2018-03-02T21:43:48.869Z,98.60
2018-03-02T21:46:26.464Z,98.60
2018-03-02T21:49:06.907Z,98.60
2018-03-02T21:51:44.047Z,98.60
2018-03-02T21:54:23.354Z,98.90
2018-03-02T21:57:00.484Z,98.70
2018-03-02T21:59:37.538Z,98.90
2018-03-02T22:02:15.453Z,99.00
2018-03-02T22:04:51.336Z,99.10
2018-03-02T22:07:27.076Z,99.00
2018-03-02T22:10:02.997Z,99.00
2018-03-02T22:12:41.426Z,98.90
2018-03-02T22:15:18.038Z,99.10
2018-03-02T22:17:56.193Z,99.00
2018-03-02T22:20:34.090Z,98.90
2018-03-02T22:23:10.076Z,99.40
2018-03-02T22:25:45.878Z,99.40
2018-03-02T22:28:22.803Z,99.40
2018-03-02T22:30:58.859Z,99.60
2018-03-02T22:33:35.729Z,99.50
2018-03-02T22:36:14.169Z,99.30
2018-03-02T22:38:51.233Z,99.30
2018-03-02T22:41:26.925Z,99.40
2018-03-02T22:43:57.120Z,99.00
2018-03-02T22:46:33.851Z,99.00
2018-03-02T22:49:09.750Z,98.50
2018-03-02T22:51:46.362Z,98.90
2018-03-02T22:54:22.454Z,98.90
2018-03-02T22:57:04.718Z,98.80
2018-03-02T22:59:42.481Z,98.30
2018-03-02T23:02:17.728Z,98.30
2018-03-02T23:04:56.719Z,98.30
2018-03-02T23:07:34.211Z,98.50
2018-03-02T23:10:10.786Z,98.50
2018-03-02T23:12:47.197Z,98.10
2018-03-02T23:15:24.516Z,98.30
2018-03-02T23:18:00.835Z,98.30
2018-03-02T23:20:36.861Z,98.60
2018-03-02T23:23:14.433Z,98.80
2018-03-02T23:25:53.962Z,98.90
2018-03-02T23:28:31.163Z,98.80
2018-03-02T23:31:07.837Z,99.00
2018-03-02T23:33:45.057Z,98.70
2018-03-02T23:36:20.541Z,98.80
2018-03-02T23:38:58.232Z,98.80
2018-03-02T23:41:36.601Z,98.80
2018-03-02T23:44:14.628Z,98.80
2018-03-02T23:46:52.794Z,98.60
2018-03-02T23:49:28.444Z,98.80
2018-03-02T23:52:05.939Z,98.80
2018-03-02T23:54:41.528Z,99.00
2018-03-02T23:57:18.670Z,99.10
2018-03-02T23:59:56.178Z,99.20
